sensor_id;sensor_type;location;lat;lon;timestamp;pressure;altitude;pressure_sealevel;temperature;humidity
72636;BME280;60679;48.888;15.544;2023-03-05T00:00:45;95984.19;;;1.05;56.39
72636;BME280;60679;48.888;15.544;2023-03-05T00:03:11;95994.81;;;1.05;56.51
72636;BME280;60679;48.888;15.544;2023-03-05T00:05:36;95981.53;;;1.05;56.92
72636;BME280;60679;48.888;15.544;2023-03-05T00:08:02;95982.38;;;1.05;56.55
72636;BME280;60679;48.888;15.544;2023-03-05T00:10:27;95979.38;;;1.08;56.94
72636;BME280;60679;48.888;15.544;2023-03-05T00:12:52;95976.72;;;1.08;56.88
72636;BME280;60679;48.888;15.544;2023-03-05T00:15:18;95982.22;;;1.07;56.69
72636;BME280;60679;48.888;15.544;2023-03-05T00:17:43;95980.38;;;1.07;56.88
72636;BME280;60679;48.888;15.544;2023-03-05T00:20:09;95971.41;;;1.08;56.81
72636;BME280;60679;48.888;15.544;2023-03-05T00:22:36;95976.56;;;1.10;57.04
72636;BME280;60679;48.888;15.544;2023-03-05T00:25:02;95977.56;;;1.09;56.96
72636;BME280;60679;48.888;15.544;2023-03-05T00:27:27;95972.56;;;1.06;57.06
72636;BME280;60679;48.888;15.544;2023-03-05T00:29:53;95969.72;;;1.07;57.07
72636;BME280;60679;48.888;15.544;2023-03-05T00:32:18;95968.09;;;1.06;57.06
72636;BME280;60679;48.888;15.544;2023-03-05T00:34:46;95970.91;;;1.05;57.23
72636;BME280;60679;48.888;15.544;2023-03-05T00:37:14;95964.41;;;1.07;57.29
72636;BME280;60679;48.888;15.544;2023-03-05T00:39:39;95968.94;;;1.07;57.14
72636;BME280;60679;48.888;15.544;2023-03-05T00:42:05;95961.59;;;1.09;57.39
72636;BME280;60679;48.888;15.544;2023-03-05T00:44:30;95963.25;;;1.10;57.42
72636;BME280;60679;48.888;15.544;2023-03-05T00:46:56;95960.41;;;1.11;57.44
72636;BME280;60679;48.888;15.544;2023-03-05T00:49:21;95950.63;;;1.12;57.51
72636;BME280;60679;48.888;15.544;2023-03-05T00:51:46;95948.13;;;1.10;57.33
72636;BME280;60679;48.888;15.544;2023-03-05T00:54:12;95950.78;;;1.10;57.46
72636;BME280;60679;48.888;15.544;2023-03-05T00:56:37;95943.81;;;1.09;57.54
72636;BME280;60679;48.888;15.544;2023-03-05T00:59:02;95941.16;;;1.09;57.69
72636;BME280;60679;48.888;15.544;2023-03-05T01:01:28;95940.34;;;1.09;57.58
72636;BME280;60679;48.888;15.544;2023-03-05T01:03:53;95930.69;;;1.08;57.67
72636;BME280;60679;48.888;15.544;2023-03-05T01:06:21;95938.84;;;1.06;57.71
72636;BME280;60679;48.888;15.544;2023-03-05T01:08:47;95935.16;;;1.07;57.70
72636;BME280;60679;48.888;15.544;2023-03-05T01:11:12;95931.88;;;1.05;57.72
72636;BME280;60679;48.888;15.544;2023-03-05T01:13:38;95930.38;;;1.03;57.84
72636;BME280;60679;48.888;15.544;2023-03-05T01:16:04;95920.28;;;0.98;57.85
72636;BME280;60679;48.888;15.544;2023-03-05T01:18:29;95920.28;;;0.98;58.00
72636;BME280;60679;48.888;15.544;2023-03-05T01:20:55;95918.63;;;0.97;57.84
72636;BME280;60679;48.888;15.544;2023-03-05T01:23:20;95915.47;;;0.94;57.74
72636;BME280;60679;48.888;15.544;2023-03-05T01:25:55;95910.00;;;0.95;58.06
72636;BME280;60679;48.888;15.544;2023-03-05T01:28:21;95913.84;;;0.93;58.12
72636;BME280;60679;48.888;15.544;2023-03-05T01:30:46;95902.72;;;0.89;58.16
72636;BME280;60679;48.888;15.544;2023-03-05T01:33:12;95903.72;;;0.88;58.09
72636;BME280;60679;48.888;15.544;2023-03-05T01:35:37;95910.84;;;0.88;58.08
72636;BME280;60679;48.888;15.544;2023-03-05T01:38:02;95901.41;;;0.85;58.18
72636;BME280;60679;48.888;15.544;2023-03-05T01:40:29;95905.41;;;0.81;58.33
72636;BME280;60679;48.888;15.544;2023-03-05T01:43:00;95911.06;;;0.78;58.54
72636;BME280;60679;48.888;15.544;2023-03-05T01:45:31;95902.78;;;0.73;58.35
72636;BME280;60679;48.888;15.544;2023-03-05T01:47:59;95900.28;;;0.72;58.61
72636;BME280;60679;48.888;15.544;2023-03-05T01:50:25;95895.31;;;0.69;58.73
72636;BME280;60679;48.888;15.544;2023-03-05T01:52:56;95903.47;;;0.67;58.60
72636;BME280;60679;48.888;15.544;2023-03-05T01:55:26;95896.00;;;0.63;58.84
72636;BME280;60679;48.888;15.544;2023-03-05T01:57:55;95895.34;;;0.61;58.87
72636;BME280;60679;48.888;15.544;2023-03-05T02:00:26;95906.97;;;0.59;58.97
72636;BME280;60679;48.888;15.544;2023-03-05T02:02:52;95903.03;;;0.55;58.88
72636;BME280;60679;48.888;15.544;2023-03-05T02:05:33;95899.53;;;0.55;59.21
72636;BME280;60679;48.888;15.544;2023-03-05T02:08:02;95897.88;;;0.54;59.20
72636;BME280;60679;48.888;15.544;2023-03-05T02:10:31;95897.22;;;0.52;59.40
72636;BME280;60679;48.888;15.544;2023-03-05T02:13:00;95895.53;;;0.51;59.16
72636;BME280;60679;48.888;15.544;2023-03-05T02:15:26;95900.41;;;0.47;59.25
72636;BME280;60679;48.888;15.544;2023-03-05T02:17:52;95887.28;;;0.46;59.35
72636;BME280;60679;48.888;15.544;2023-03-05T02:20:20;95896.41;;;0.43;59.46
72636;BME280;60679;48.888;15.544;2023-03-05T02:22:46;95892.28;;;0.41;59.86
72636;BME280;60679;48.888;15.544;2023-03-05T02:25:16;95886.47;;;0.37;59.89
72636;BME280;60679;48.888;15.544;2023-03-05T02:27:48;95891.97;;;0.36;59.78
72636;BME280;60679;48.888;15.544;2023-03-05T02:30:14;95888.66;;;0.34;59.88
72636;BME280;60679;48.888;15.544;2023-03-05T02:32:39;95882.50;;;0.33;59.71
72636;BME280;60679;48.888;15.544;2023-03-05T02:35:05;95882.50;;;0.33;60.12
72636;BME280;60679;48.888;15.544;2023-03-05T02:37:31;95875.38;;;0.34;60.16
72636;BME280;60679;48.888;15.544;2023-03-05T02:39:56;95877.19;;;0.33;59.96
72636;BME280;60679;48.888;15.544;2023-03-05T02:42:21;95879.03;;;0.33;60.44
72636;BME280;60679;48.888;15.544;2023-03-05T02:44:47;95872.03;;;0.32;60.37
72636;BME280;60679;48.888;15.544;2023-03-05T02:47:12;95866.75;;;0.32;60.85
72636;BME280;60679;48.888;15.544;2023-03-05T02:49:37;95871.41;;;0.30;60.73
72636;BME280;60679;48.888;15.544;2023-03-05T02:52:03;95871.41;;;0.30;60.89
72636;BME280;60679;48.888;15.544;2023-03-05T02:54:28;95870.41;;;0.31;60.82
72636;BME280;60679;48.888;15.544;2023-03-05T02:56:54;95861.44;;;0.32;60.89
72636;BME280;60679;48.888;15.544;2023-03-05T02:59:19;95877.34;;;0.32;60.97
72636;BME280;60679;48.888;15.544;2023-03-05T03:01:44;95858.28;;;0.28;61.18
72636;BME280;60679;48.888;15.544;2023-03-05T03:04:10;95869.72;;;0.29;61.09
72636;BME280;60679;48.888;15.544;2023-03-05T03:06:35;95853.66;;;0.30;61.25
72636;BME280;60679;48.888;15.544;2023-03-05T03:09:00;95864.75;;;0.34;61.50
72636;BME280;60679;48.888;15.544;2023-03-05T03:11:26;95854.94;;;0.34;61.37
72636;BME280;60679;48.888;15.544;2023-03-05T03:13:51;95862.09;;;0.34;61.54
72636;BME280;60679;48.888;15.544;2023-03-05T03:16:16;95861.09;;;0.35;61.59
72636;BME280;60679;48.888;15.544;2023-03-05T03:18:42;95851.13;;;0.37;61.59
72636;BME280;60679;48.888;15.544;2023-03-05T03:21:15;95849.97;;;0.39;61.64
72636;BME280;60679;48.888;15.544;2023-03-05T03:23:41;95857.09;;;0.39;61.63
72636;BME280;60679;48.888;15.544;2023-03-05T03:26:06;95850.78;;;0.40;61.57
72636;BME280;60679;48.888;15.544;2023-03-05T03:28:31;95849.78;;;0.41;61.77
72636;BME280;60679;48.888;15.544;2023-03-05T03:30:57;95840.16;;;0.40;61.86
72636;BME280;60679;48.888;15.544;2023-03-05T03:33:22;95848.94;;;0.40;61.91
72636;BME280;60679;48.888;15.544;2023-03-05T03:35:47;95846.28;;;0.40;61.75
72636;BME280;60679;48.888;15.544;2023-03-05T03:38:13;95839.34;;;0.39;61.95
72636;BME280;60679;48.888;15.544;2023-03-05T03:40:40;95840.34;;;0.38;62.03
72636;BME280;60679;48.888;15.544;2023-03-05T03:43:06;95836.19;;;0.36;62.14
72636;BME280;60679;48.888;15.544;2023-03-05T03:45:32;95836.84;;;0.38;62.30
72636;BME280;60679;48.888;15.544;2023-03-05T03:47:57;95840.50;;;0.37;62.22
72636;BME280;60679;48.888;15.544;2023-03-05T03:50:22;95831.72;;;0.36;62.57
72636;BME280;60679;48.888;15.544;2023-03-05T03:52:49;95829.88;;;0.37;62.45
72636;BME280;60679;48.888;15.544;2023-03-05T03:55:15;95842.34;;;0.36;62.40
72636;BME280;60679;48.888;15.544;2023-03-05T03:57:40;95831.72;;;0.36;62.53
72636;BME280;60679;48.888;15.544;2023-03-05T04:00:06;95829.06;;;0.36;62.36
72636;BME280;60679;48.888;15.544;2023-03-05T04:02:31;95833.38;;;0.37;62.56
72636;BME280;60679;48.888;15.544;2023-03-05T04:04:57;95831.53;;;0.38;62.52
72636;BME280;60679;48.888;15.544;2023-03-05T04:07:22;95825.41;;;0.37;62.54
72636;BME280;60679;48.888;15.544;2023-03-05T04:09:48;95823.56;;;0.38;62.56
72636;BME280;60679;48.888;15.544;2023-03-05T04:12:14;95819.25;;;0.37;62.59
72636;BME280;60679;48.888;15.544;2023-03-05T04:14:46;95822.75;;;0.37;62.86
72636;BME280;60679;48.888;15.544;2023-03-05T04:17:12;95812.13;;;0.37;62.59
72636;BME280;60679;48.888;15.544;2023-03-05T04:19:39;95818.44;;;0.36;62.96
72636;BME280;60679;48.888;15.544;2023-03-05T04:22:06;95812.13;;;0.37;62.89
72636;BME280;60679;48.888;15.544;2023-03-05T04:24:34;95815.47;;;0.39;62.93
72636;BME280;60679;48.888;15.544;2023-03-05T04:26:59;95819.25;;;0.37;62.89
72636;BME280;60679;48.888;15.544;2023-03-05T04:29:25;95809.47;;;0.37;62.96
72636;BME280;60679;48.888;15.544;2023-03-05T04:31:51;95810.50;;;0.36;62.84
72636;BME280;60679;48.888;15.544;2023-03-05T04:34:16;95805.19;;;0.36;63.07
72636;BME280;60679;48.888;15.544;2023-03-05T04:36:41;95814.13;;;0.35;63.10
72636;BME280;60679;48.888;15.544;2023-03-05T04:39:07;95803.69;;;0.34;63.32
72636;BME280;60679;48.888;15.544;2023-03-05T04:41:32;95805.34;;;0.35;63.17
72636;BME280;60679;48.888;15.544;2023-03-05T04:43:58;95805.34;;;0.35;63.18
72636;BME280;60679;48.888;15.544;2023-03-05T04:46:23;95806.16;;;0.35;63.18
72636;BME280;60679;48.888;15.544;2023-03-05T04:48:48;95800.84;;;0.35;63.46
72636;BME280;60679;48.888;15.544;2023-03-05T04:51:14;95805.53;;;0.33;63.43
72636;BME280;60679;48.888;15.544;2023-03-05T04:53:39;95804.69;;;0.33;63.13
72636;BME280;60679;48.888;15.544;2023-03-05T04:56:05;95798.72;;;0.31;63.23
72636;BME280;60679;48.888;15.544;2023-03-05T04:58:30;95799.88;;;0.28;63.38
72636;BME280;60679;48.888;15.544;2023-03-05T05:01:03;95793.75;;;0.28;63.56
72636;BME280;60679;48.888;15.544;2023-03-05T05:03:30;95793.75;;;0.28;63.36
72636;BME280;60679;48.888;15.544;2023-03-05T05:05:57;95798.41;;;0.26;63.49
72636;BME280;60679;48.888;15.544;2023-03-05T05:08:23;95793.44;;;0.23;63.59
72636;BME280;60679;48.888;15.544;2023-03-05T05:11:02;95786.47;;;0.22;63.71
72636;BME280;60679;48.888;15.544;2023-03-05T05:13:28;95791.28;;;0.18;63.58
72636;BME280;60679;48.888;15.544;2023-03-05T05:15:54;95794.78;;;0.19;63.66
72636;BME280;60679;48.888;15.544;2023-03-05T05:18:19;95790.47;;;0.18;63.98
72636;BME280;60679;48.888;15.544;2023-03-05T05:20:45;95785.16;;;0.18;63.83
72636;BME280;60679;48.888;15.544;2023-03-05T05:23:11;95792.28;;;0.17;63.79
72636;BME280;60679;48.888;15.544;2023-03-05T05:25:36;95794.13;;;0.17;63.73
72636;BME280;60679;48.888;15.544;2023-03-05T05:28:02;95782.50;;;0.18;63.81
72636;BME280;60679;48.888;15.544;2023-03-05T05:30:27;95786.81;;;0.19;63.91
72636;BME280;60679;48.888;15.544;2023-03-05T05:32:53;95796.44;;;0.20;63.92
72636;BME280;60679;48.888;15.544;2023-03-05T05:35:18;95786.63;;;0.20;63.93
72636;BME280;60679;48.888;15.544;2023-03-05T05:37:43;95781.31;;;0.20;64.38
72636;BME280;60679;48.888;15.544;2023-03-05T05:40:09;95789.47;;;0.19;64.20
72636;BME280;60679;48.888;15.544;2023-03-05T05:42:35;95793.94;;;0.18;64.27
72636;BME280;60679;48.888;15.544;2023-03-05T05:45:00;95783.19;;;0.20;64.09
72636;BME280;60679;48.888;15.544;2023-03-05T05:47:27;95780.69;;;0.18;64.40
72636;BME280;60679;48.888;15.544;2023-03-05T05:49:53;95791.16;;;0.20;64.17
72636;BME280;60679;48.888;15.544;2023-03-05T05:52:19;95787.66;;;0.19;64.36
72636;BME280;60679;48.888;15.544;2023-03-05T05:54:44;95787.66;;;0.19;64.51
72636;BME280;60679;48.888;15.544;2023-03-05T05:57:10;95788.13;;;0.23;64.11
72636;BME280;60679;48.888;15.544;2023-03-05T05:59:35;95789.13;;;0.22;64.40
72636;BME280;60679;48.888;15.544;2023-03-05T06:02:01;95780.16;;;0.23;64.36
72636;BME280;60679;48.888;15.544;2023-03-05T06:04:27;95789.78;;;0.24;64.43
72636;BME280;60679;48.888;15.544;2023-03-05T06:06:53;95788.59;;;0.26;64.40
72636;BME280;60679;48.888;15.544;2023-03-05T06:09:18;95784.97;;;0.27;64.29
72636;BME280;60679;48.888;15.544;2023-03-05T06:11:44;95789.94;;;0.30;64.52
72636;BME280;60679;48.888;15.544;2023-03-05T06:14:11;95790.75;;;0.31;64.47
72636;BME280;60679;48.888;15.544;2023-03-05T06:16:36;95804.84;;;0.31;64.49
72636;BME280;60679;48.888;15.544;2023-03-05T06:19:02;95792.41;;;0.32;64.33
72636;BME280;60679;48.888;15.544;2023-03-05T06:21:31;95792.41;;;0.32;64.51
72636;BME280;60679;48.888;15.544;2023-03-05T06:23:56;95799.53;;;0.31;64.90
72636;BME280;60679;48.888;15.544;2023-03-05T06:26:23;95800.84;;;0.35;64.45
72636;BME280;60679;48.888;15.544;2023-03-05T06:28:48;95802.34;;;0.38;64.55
72636;BME280;60679;48.888;15.544;2023-03-05T06:31:18;95795.00;;;0.40;64.65
72636;BME280;60679;48.888;15.544;2023-03-05T06:33:46;95804.00;;;0.39;64.55
72636;BME280;60679;48.888;15.544;2023-03-05T06:36:13;95798.69;;;0.39;64.41
72636;BME280;60679;48.888;15.544;2023-03-05T06:38:39;95798.34;;;0.42;64.68
72636;BME280;60679;48.888;15.544;2023-03-05T06:41:11;95801.81;;;0.42;64.47
72636;BME280;60679;48.888;15.544;2023-03-05T06:43:38;95794.50;;;0.44;64.73
72636;BME280;60679;48.888;15.544;2023-03-05T06:46:07;95801.78;;;0.50;64.53
72636;BME280;60679;48.888;15.544;2023-03-05T06:48:33;95801.75;;;0.58;64.38
72636;BME280;60679;48.888;15.544;2023-03-05T06:50:58;95800.38;;;0.63;64.20
72636;BME280;60679;48.888;15.544;2023-03-05T06:53:25;95796.03;;;0.70;64.15
72636;BME280;60679;48.888;15.544;2023-03-05T06:55:52;95794.38;;;0.69;64.36
72636;BME280;60679;48.888;15.544;2023-03-05T06:58:18;95803.47;;;0.74;64.15
72636;BME280;60679;48.888;15.544;2023-03-05T07:00:44;95804.78;;;0.78;64.20
72636;BME280;60679;48.888;15.544;2023-03-05T07:03:10;95804.25;;;0.83;64.28
72636;BME280;60679;48.888;15.544;2023-03-05T07:05:40;95800.56;;;0.92;64.06
72636;BME280;60679;48.888;15.544;2023-03-05T07:08:06;95802.50;;;0.98;63.94
72636;BME280;60679;48.888;15.544;2023-03-05T07:10:33;95803.34;;;0.98;63.80
72636;BME280;60679;48.888;15.544;2023-03-05T07:13:01;95804.88;;;0.93;64.09
72636;BME280;60679;48.888;15.544;2023-03-05T07:15:26;95802.31;;;0.99;63.87
72636;BME280;60679;48.888;15.544;2023-03-05T07:17:51;95802.81;;;1.03;63.95
72636;BME280;60679;48.888;15.544;2023-03-05T07:20:17;95801.19;;;1.16;63.51
72636;BME280;60679;48.888;15.544;2023-03-05T07:22:42;95798.72;;;1.38;63.17
72636;BME280;60679;48.888;15.544;2023-03-05T07:25:08;95794.25;;;1.53;63.02
72636;BME280;60679;48.888;15.544;2023-03-05T07:27:34;95794.66;;;1.64;62.94
72636;BME280;60679;48.888;15.544;2023-03-05T07:30:00;95802.13;;;1.69;62.59
72636;BME280;60679;48.888;15.544;2023-03-05T07:32:25;95798.91;;;1.73;62.55
72636;BME280;60679;48.888;15.544;2023-03-05T07:34:52;95801.38;;;1.60;63.13
72636;BME280;60679;48.888;15.544;2023-03-05T07:37:17;95805.72;;;1.53;63.26
72636;BME280;60679;48.888;15.544;2023-03-05T07:39:43;95800.88;;;1.57;63.04
72636;BME280;60679;48.888;15.544;2023-03-05T07:42:08;95802.88;;;1.78;62.89
72636;BME280;60679;48.888;15.544;2023-03-05T07:44:33;95794.53;;;1.81;62.65
72636;BME280;60679;48.888;15.544;2023-03-05T07:47:00;95798.34;;;1.63;63.12
72636;BME280;60679;48.888;15.544;2023-03-05T07:49:25;95801.94;;;1.48;63.42
72636;BME280;60679;48.888;15.544;2023-03-05T07:51:51;95796.06;;;1.38;63.55
72636;BME280;60679;48.888;15.544;2023-03-05T07:54:16;95794.59;;;1.35;63.65
72636;BME280;60679;48.888;15.544;2023-03-05T07:56:41;95791.19;;;1.41;63.49
72636;BME280;60679;48.888;15.544;2023-03-05T07:59:10;95795.03;;;1.39;63.50
72636;BME280;60679;48.888;15.544;2023-03-05T08:01:36;95799.44;;;1.32;63.74
72636;BME280;60679;48.888;15.544;2023-03-05T08:04:03;95796.13;;;1.30;63.84
72636;BME280;60679;48.888;15.544;2023-03-05T08:06:29;95795.72;;;1.41;63.47
72636;BME280;60679;48.888;15.544;2023-03-05T08:08:54;95793.69;;;1.43;63.45
72636;BME280;60679;48.888;15.544;2023-03-05T08:11:20;95790.03;;;1.44;63.46
72636;BME280;60679;48.888;15.544;2023-03-05T08:13:45;95800.38;;;1.39;63.74
72636;BME280;60679;48.888;15.544;2023-03-05T08:16:14;95789.44;;;1.34;63.77
72636;BME280;60679;48.888;15.544;2023-03-05T08:18:39;95792.94;;;1.34;63.61
72636;BME280;60679;48.888;15.544;2023-03-05T08:21:05;95784.31;;;1.32;64.00
72636;BME280;60679;48.888;15.544;2023-03-05T08:23:31;95794.13;;;1.32;63.85
72636;BME280;60679;48.888;15.544;2023-03-05T08:25:59;95795.47;;;1.28;63.84
72636;BME280;60679;48.888;15.544;2023-03-05T08:28:24;95794.53;;;1.21;64.10
72636;BME280;60679;48.888;15.544;2023-03-05T08:30:49;95794.25;;;1.15;64.20
72636;BME280;60679;48.888;15.544;2023-03-05T08:33:15;95797.25;;;1.12;64.14
72636;BME280;60679;48.888;15.544;2023-03-05T08:35:46;95797.91;;;1.14;64.15
72636;BME280;60679;48.888;15.544;2023-03-05T08:38:11;95788.09;;;1.15;64.13
72636;BME280;60679;48.888;15.544;2023-03-05T08:40:37;95801.41;;;1.15;64.29
72636;BME280;60679;48.888;15.544;2023-03-05T08:43:03;95795.41;;;1.13;64.36
72636;BME280;60679;48.888;15.544;2023-03-05T08:45:29;95787.44;;;1.13;64.33
72636;BME280;60679;48.888;15.544;2023-03-05T08:47:55;95800.72;;;1.13;64.26
72636;BME280;60679;48.888;15.544;2023-03-05T08:50:22;95798.25;;;1.11;64.57
72636;BME280;60679;48.888;15.544;2023-03-05T08:52:48;95798.25;;;1.11;64.26
72636;BME280;60679;48.888;15.544;2023-03-05T08:55:14;95798.44;;;1.10;64.61
72636;BME280;60679;48.888;15.544;2023-03-05T08:57:40;95792.81;;;1.05;64.47
72636;BME280;60679;48.888;15.544;2023-03-05T09:00:13;95791.34;;;1.02;64.64
72636;BME280;60679;48.888;15.544;2023-03-05T09:02:38;95790.81;;;1.07;64.52
72636;BME280;60679;48.888;15.544;2023-03-05T09:05:04;95788.09;;;1.15;64.42
72636;BME280;60679;48.888;15.544;2023-03-05T09:07:30;95786.91;;;1.17;64.40
72636;BME280;60679;48.888;15.544;2023-03-05T09:09:55;95785.94;;;1.19;64.67
72636;BME280;60679;48.888;15.544;2023-03-05T09:12:20;95793.50;;;1.22;64.55
72636;BME280;60679;48.888;15.544;2023-03-05T09:14:46;95789.78;;;1.31;64.27
72636;BME280;60679;48.888;15.544;2023-03-05T09:17:11;95787.72;;;1.41;64.11
72636;BME280;60679;48.888;15.544;2023-03-05T09:19:37;95783.81;;;1.51;63.93
72636;BME280;60679;48.888;15.544;2023-03-05T09:22:02;95789.97;;;1.52;64.01
72636;BME280;60679;48.888;15.544;2023-03-05T09:24:28;95780.69;;;1.48;64.22
72636;BME280;60679;48.888;15.544;2023-03-05T09:26:57;95780.50;;;1.49;64.07
72636;BME280;60679;48.888;15.544;2023-03-05T09:29:22;95783.06;;;1.43;64.05
72636;BME280;60679;48.888;15.544;2023-03-05T09:31:50;95783.22;;;1.41;64.33
72636;BME280;60679;48.888;15.544;2023-03-05T09:34:15;95779.84;;;1.47;63.99
72636;BME280;60679;48.888;15.544;2023-03-05T09:36:41;95780.31;;;1.51;64.05
72636;BME280;60679;48.888;15.544;2023-03-05T09:39:06;95777.78;;;1.57;63.89
72636;BME280;60679;48.888;15.544;2023-03-05T09:44:51;95770.56;;;1.81;63.42
72636;BME280;60679;48.888;15.544;2023-03-05T09:50:04;95778.03;;;2.14;62.61
72636;BME280;60679;48.888;15.544;2023-03-05T09:52:53;95771.22;;;1.97;62.98
72636;BME280;60679;48.888;15.544;2023-03-05T09:55:55;95771.47;;;1.88;63.22
72636;BME280;60679;48.888;15.544;2023-03-05T09:58:16;95771.28;;;1.89;63.15
72636;BME280;60679;48.888;15.544;2023-03-05T10:00:44;95773.16;;;1.89;63.17
72636;BME280;60679;48.888;15.544;2023-03-05T10:03:17;95774.97;;;1.88;63.05
72636;BME280;60679;48.888;15.544;2023-03-05T10:05:57;95779.72;;;1.93;63.21
72636;BME280;60679;48.888;15.544;2023-03-05T10:08:32;95774.25;;;1.94;62.99
72636;BME280;60679;48.888;15.544;2023-03-05T10:11:05;95773.88;;;1.97;62.72
72636;BME280;60679;48.888;15.544;2023-03-05T10:13:39;95769.19;;;1.99;62.78
72636;BME280;60679;48.888;15.544;2023-03-05T10:19:05;95759.81;;;2.18;62.22
72636;BME280;60679;48.888;15.544;2023-03-05T10:24:25;95768.63;;;2.04;62.35
72636;BME280;60679;48.888;15.544;2023-03-05T10:27:23;95771.03;;;1.99;62.47
72636;BME280;60679;48.888;15.544;2023-03-05T10:32:42;95772.22;;;2.11;62.13
72636;BME280;60679;48.888;15.544;2023-03-05T10:40:39;95760.78;;;2.46;61.22
72636;BME280;60679;48.888;15.544;2023-03-05T10:45:52;95761.78;;;2.60;61.25
72636;BME280;60679;48.888;15.544;2023-03-05T10:51:12;95766.09;;;2.61;60.90
72636;BME280;60679;48.888;15.544;2023-03-05T10:53:56;95756.50;;;2.81;60.68
72636;BME280;60679;48.888;15.544;2023-03-05T10:56:26;95763.66;;;2.80;60.55
72636;BME280;60679;48.888;15.544;2023-03-05T10:58:52;95756.78;;;2.71;60.84
72636;BME280;60679;48.888;15.544;2023-03-05T11:01:23;95751.56;;;2.63;60.76
72636;BME280;60679;48.888;15.544;2023-03-05T11:03:59;95753.25;;;2.64;60.57
72636;BME280;60679;48.888;15.544;2023-03-05T11:06:33;95748.53;;;2.66;60.63
72636;BME280;60679;48.888;15.544;2023-03-05T11:09:28;95744.81;;;2.46;60.74
72636;BME280;60679;48.888;15.544;2023-03-05T11:12:10;95755.28;;;2.48;60.65
72636;BME280;60679;48.888;15.544;2023-03-05T11:15:00;95739.59;;;2.38;60.59
72636;BME280;60679;48.888;15.544;2023-03-05T11:17:34;95744.56;;;2.26;60.73
72636;BME280;60679;48.888;15.544;2023-03-05T11:28:55;95720.84;;;3.03;59.50
72636;BME280;60679;48.888;15.544;2023-03-05T11:31:24;95722.72;;;3.30;58.93
72636;BME280;60679;48.888;15.544;2023-03-05T11:36:29;95716.66;;;3.71;57.99
72636;BME280;60679;48.888;15.544;2023-03-05T11:41:34;95714.50;;;3.81;57.92
72636;BME280;60679;48.888;15.544;2023-03-05T11:44:05;95719.03;;;3.87;57.87
72636;BME280;60679;48.888;15.544;2023-03-05T11:46:39;95715.06;;;3.76;58.21
72636;BME280;60679;48.888;15.544;2023-03-05T11:49:06;95709.81;;;3.62;58.32
72636;BME280;60679;48.888;15.544;2023-03-05T11:54:34;95702.78;;;3.54;58.24
72636;BME280;60679;48.888;15.544;2023-03-05T11:57:01;95704.41;;;3.48;58.47
72636;BME280;60679;48.888;15.544;2023-03-05T11:59:34;95698.06;;;3.28;58.84
72636;BME280;60679;48.888;15.544;2023-03-05T12:02:01;95689.69;;;3.31;58.59
72636;BME280;60679;48.888;15.544;2023-03-05T12:04:28;95689.78;;;3.44;58.18
72636;BME280;60679;48.888;15.544;2023-03-05T12:07:01;95684.28;;;3.25;58.39
72636;BME280;60679;48.888;15.544;2023-03-05T12:09:40;95686.97;;;3.25;58.62
72636;BME280;60679;48.888;15.544;2023-03-05T12:14:56;95670.31;;;3.50;58.05
72636;BME280;60679;48.888;15.544;2023-03-05T12:22:36;95674.13;;;3.07;58.78
72636;BME280;60679;48.888;15.544;2023-03-05T12:25:29;95671.50;;;2.71;59.04
72636;BME280;60679;48.888;15.544;2023-03-05T12:27:57;95670.16;;;2.61;59.32
72636;BME280;60679;48.888;15.544;2023-03-05T12:38:44;95651.75;;;2.66;59.02
72636;BME280;60679;48.888;15.544;2023-03-05T12:46:34;95656.34;;;2.72;58.98
72636;BME280;60679;48.888;15.544;2023-03-05T12:51:49;95651.66;;;2.53;59.20
72636;BME280;60679;48.888;15.544;2023-03-05T12:56:58;95647.34;;;2.16;59.88
72636;BME280;60679;48.888;15.544;2023-03-05T12:59:47;95651.59;;;1.96;60.04
72636;BME280;60679;48.888;15.544;2023-03-05T13:02:35;95654.25;;;1.96;60.05
72636;BME280;60679;48.888;15.544;2023-03-05T13:05:06;95640.03;;;2.39;59.37
72636;BME280;60679;48.888;15.544;2023-03-05T13:07:39;95635.78;;;2.66;58.68
72636;BME280;60679;48.888;15.544;2023-03-05T13:10:04;95632.34;;;2.72;58.56
72636;BME280;60679;48.888;15.544;2023-03-05T13:12:30;95630.97;;;2.76;58.69
72636;BME280;60679;48.888;15.544;2023-03-05T13:15:07;95628.09;;;2.77;58.68
72636;BME280;60679;48.888;15.544;2023-03-05T13:17:56;95628.94;;;2.78;58.58
72636;BME280;60679;48.888;15.544;2023-03-05T13:20:24;95632.03;;;2.81;58.40
72636;BME280;60679;48.888;15.544;2023-03-05T13:25:38;95621.25;;;2.89;58.45
72636;BME280;60679;48.888;15.544;2023-03-05T13:28:10;95630.38;;;2.80;58.57
72636;BME280;60679;48.888;15.544;2023-03-05T13:30:35;95626.06;;;2.79;58.39
72636;BME280;60679;48.888;15.544;2023-03-05T13:33:02;95625.19;;;2.72;58.76
72636;BME280;60679;48.888;15.544;2023-03-05T13:35:32;95627.97;;;2.64;58.73
72636;BME280;60679;48.888;15.544;2023-03-05T13:37:58;95628.28;;;2.55;58.77
72636;BME280;60679;48.888;15.544;2023-03-05T13:40:31;95622.78;;;2.56;58.89
72636;BME280;60679;48.888;15.544;2023-03-05T13:43:11;95622.19;;;2.61;58.54
72636;BME280;60679;48.888;15.544;2023-03-05T13:45:37;95620.84;;;2.71;58.43
72636;BME280;60679;48.888;15.544;2023-03-05T13:48:04;95616.22;;;2.80;58.30
72636;BME280;60679;48.888;15.544;2023-03-05T13:50:40;95619.16;;;2.85;58.30
72636;BME280;60679;48.888;15.544;2023-03-05T13:53:24;95609.06;;;2.80;58.40
72636;BME280;60679;48.888;15.544;2023-03-05T13:55:53;95611.78;;;2.87;58.17
72636;BME280;60679;48.888;15.544;2023-03-05T13:58:49;95597.63;;;2.86;58.27
72636;BME280;60679;48.888;15.544;2023-03-05T14:04:15;95605.31;;;2.75;58.44
72636;BME280;60679;48.888;15.544;2023-03-05T14:12:22;95594.34;;;2.63;58.65
72636;BME280;60679;48.888;15.544;2023-03-05T14:14:49;95594.03;;;2.73;58.40
72636;BME280;60679;48.888;15.544;2023-03-05T14:17:37;95579.19;;;2.85;58.11
72636;BME280;60679;48.888;15.544;2023-03-05T14:22:42;95579.81;;;2.66;58.35
72636;BME280;60679;48.888;15.544;2023-03-05T14:27:55;95575.13;;;2.47;58.77
72636;BME280;60679;48.888;15.544;2023-03-05T14:30:21;95577.19;;;2.45;59.04